Time;durP1;ratioP1;P1;durP2;ratioP2;P2;SDS_P1;SDS_P2;PMS_P1;PMS_P2;Temp;Humidity;BMP_temperature;BMP_pressure;BME280_temperature;BME280_humidity;BME280_pressure;Samples;Min_cycle;Max_cycle;Signal;HPM_P1;HPM_P2
2022/01/08 00:01:20;;;;;;;18.90;11.70;;;0.70;99.90;;;;;;5028512;28;20041;-68
2022/01/08 00:03:48;;;;;;;20.83;12.30;;;0.70;99.90;;;;;;5031442;28;20038;-68
2022/01/08 00:06:16;;;;;;;20.70;12.48;;;0.70;99.90;;;;;;5039129;28;20061;-67
2022/01/08 00:08:43;;;;;;;20.73;12.85;;;0.60;99.90;;;;;;5040218;28;20048;-68
2022/01/08 00:11:14;;;;;;;19.25;12.38;;;0.60;99.90;;;;;;5043571;28;20392;-67
2022/01/08 00:13:45;;;;;;;20.70;12.02;;;0.50;99.90;;;;;;5038674;28;20155;-67
2022/01/08 00:16:13;;;;;;;20.33;11.88;;;0.50;99.90;;;;;;5029142;28;20649;-68
2022/01/08 00:18:40;;;;;;;21.35;12.98;;;0.50;99.90;;;;;;5038146;28;20044;-68
2022/01/08 00:21:08;;;;;;;21.95;12.77;;;0.50;99.90;;;;;;5027015;28;20045;-68
2022/01/08 00:23:36;;;;;;;21.38;13.07;;;0.50;99.90;;;;;;5039396;28;20046;-68
2022/01/08 00:26:04;;;;;;;22.30;13.35;;;0.50;99.90;;;;;;5044452;28;20159;-67
2022/01/08 00:28:32;;;;;;;21.80;13.18;;;0.60;99.90;;;;;;5031383;28;20081;-68
2022/01/08 00:30:59;;;;;;;24.52;14.27;;;0.70;99.90;;;;;;5035197;28;20171;-66
2022/01/08 00:33:27;;;;;;;24.08;13.75;;;0.80;99.90;;;;;;5041228;28;20546;-68
2022/01/08 00:35:54;;;;;;;22.10;12.57;;;1.00;99.90;;;;;;5023368;28;20651;-67
2022/01/08 00:38:22;;;;;;;25.23;14.55;;;1.00;99.90;;;;;;5035665;28;20052;-67
2022/01/08 00:40:49;;;;;;;20.77;12.70;;;1.10;99.90;;;;;;5032684;28;20144;-67
2022/01/08 00:43:17;;;;;;;22.67;12.25;;;1.30;99.90;;;;;;5041807;28;20041;-67
2022/01/08 00:45:44;;;;;;;19.30;11.75;;;1.40;99.90;;;;;;5035256;28;20542;-66
2022/01/08 00:48:12;;;;;;;19.08;12.23;;;1.50;99.90;;;;;;5040756;28;20049;-67
2022/01/08 00:50:39;;;;;;;17.38;12.18;;;1.50;99.90;;;;;;5043739;28;20049;-67
2022/01/08 00:53:06;;;;;;;18.83;12.05;;;1.50;99.90;;;;;;5036307;28;20049;-68
2022/01/08 00:55:33;;;;;;;20.98;13.00;;;1.50;99.90;;;;;;5039254;28;20108;-66
2022/01/08 00:58:01;;;;;;;21.42;13.68;;;1.50;99.90;;;;;;5034907;28;20054;-68
2022/01/08 01:00:28;;;;;;;19.50;12.45;;;1.50;99.90;;;;;;5034727;28;20045;-66
2022/01/08 01:02:56;;;;;;;19.17;12.18;;;1.50;99.90;;;;;;5030883;28;20037;-67
2022/01/08 01:05:23;;;;;;;20.05;12.13;;;1.50;99.90;;;;;;5032306;28;20077;-67
2022/01/08 01:07:50;;;;;;;18.35;11.88;;;1.50;99.90;;;;;;5031887;28;20045;-67
2022/01/08 01:10:18;;;;;;;18.70;12.00;;;1.60;99.90;;;;;;5033162;28;20046;-68
2022/01/08 01:12:45;;;;;;;19.60;11.85;;;1.50;99.90;;;;;;5035406;28;20049;-66
2022/01/08 01:15:15;;;;;;;19.15;11.95;;;1.60;99.90;;;;;;5038002;28;20045;-67
2022/01/08 01:17:44;;;;;;;16.73;11.32;;;1.50;99.90;;;;;;5033498;28;20569;-66
2022/01/08 01:20:14;;;;;;;18.42;11.80;;;1.40;99.90;;;;;;5033155;28;20491;-67
2022/01/08 01:25:49;;;;;;;17.33;11.35;;;1.30;99.90;;;;;;5033801;28;20051;-67
2022/01/08 01:47:10;;;;;;;18.98;11.77;;;1.20;99.90;;;;;;5035112;28;20096;-67
2022/01/08 01:49:39;;;;;;;19.20;11.70;;;1.20;99.90;;;;;;5031134;28;20049;-66
2022/01/08 01:52:11;;;;;;;16.27;10.60;;;1.20;99.90;;;;;;5043074;28;20474;-66
2022/01/08 01:54:39;;;;;;;16.80;11.38;;;1.30;99.90;;;;;;5041372;28;20045;-67
2022/01/08 01:57:09;;;;;;;17.02;11.15;;;1.20;99.90;;;;;;5030384;28;20053;-66
2022/01/08 01:59:37;;;;;;;19.00;11.57;;;1.10;99.90;;;;;;5030225;28;20038;-65
2022/01/08 02:02:05;;;;;;;17.33;11.98;;;1.00;99.90;;;;;;5030863;28;20492;-66
2022/01/08 02:04:33;;;;;;;17.08;11.43;;;0.90;99.90;;;;;;5031715;28;20046;-66
2022/01/08 02:07:00;;;;;;;16.65;11.10;;;0.90;99.90;;;;;;5030330;28;20144;-66
2022/01/08 02:09:28;;;;;;;19.05;10.90;;;0.90;99.90;;;;;;5031474;28;20527;-67
2022/01/08 02:11:55;;;;;;;16.02;10.77;;;0.90;99.90;;;;;;5030721;28;20149;-66
2022/01/08 02:14:23;;;;;;;19.42;12.38;;;0.80;99.90;;;;;;5032502;28;20049;-66
2022/01/08 02:16:50;;;;;;;18.27;10.68;;;0.80;99.90;;;;;;5032004;28;20464;-66
2022/01/08 02:19:18;;;;;;;18.23;10.93;;;0.80;99.90;;;;;;5031499;28;20137;-66
2022/01/08 02:21:56;;;;;;;16.55;10.65;;;0.80;99.90;;;;;;5031276;28;20125;-67
2022/01/08 02:24:24;;;;;;;16.10;11.07;;;0.80;99.90;;;;;;5031710;28;20065;-67
2022/01/08 02:26:52;;;;;;;18.30;10.73;;;0.80;99.90;;;;;;5031078;28;20524;-66
2022/01/08 02:29:22;;;;;;;16.00;9.95;;;0.90;99.90;;;;;;5030571;28;20045;-67
2022/01/08 02:31:57;;;;;;;17.33;10.82;;;0.90;99.90;;;;;;5031238;28;20072;-65
2022/01/08 02:34:26;;;;;;;16.52;10.35;;;0.90;99.90;;;;;;5030458;28;20136;-66
2022/01/08 02:36:55;;;;;;;16.45;10.38;;;0.90;99.90;;;;;;5030752;28;20140;-67
2022/01/08 02:39:23;;;;;;;18.00;10.98;;;0.80;99.90;;;;;;5030967;28;20069;-67
2022/01/08 02:41:55;;;;;;;16.70;10.23;;;0.90;99.90;;;;;;5030909;28;20136;-66
2022/01/08 02:44:24;;;;;;;15.73;11.02;;;0.90;99.90;;;;;;5030840;28;20049;-67
2022/01/08 02:46:52;;;;;;;16.27;9.93;;;0.90;99.90;;;;;;5031560;28;20412;-67
2022/01/08 02:49:21;;;;;;;17.25;9.75;;;0.80;99.90;;;;;;5031189;28;20045;-67
2022/01/08 02:51:49;;;;;;;16.00;11.05;;;0.90;99.90;;;;;;5031473;28;20346;-67
2022/01/08 02:54:16;;;;;;;15.40;9.85;;;0.90;99.90;;;;;;5031840;28;20415;-67
2022/01/08 02:56:46;;;;;;;17.42;10.45;;;0.90;99.90;;;;;;5029975;28;20042;-67
2022/01/08 02:59:14;;;;;;;15.73;9.15;;;0.90;99.90;;;;;;5031061;28;20049;-67
2022/01/08 03:01:41;;;;;;;14.82;9.07;;;0.90;99.90;;;;;;5028865;28;20128;-67
2022/01/08 03:04:09;;;;;;;13.55;9.38;;;1.00;99.90;;;;;;5030499;28;20552;-66
2022/01/08 03:06:37;;;;;;;12.48;8.38;;;1.00;99.90;;;;;;5030512;28;20052;-66
2022/01/08 03:09:05;;;;;;;17.33;9.30;;;1.00;99.90;;;;;;5030432;28;20049;-66
2022/01/08 03:11:33;;;;;;;13.65;8.82;;;1.00;99.90;;;;;;5029113;28;20041;-66
2022/01/08 03:14:00;;;;;;;14.45;8.73;;;1.00;99.90;;;;;;5029993;28;20084;-66
2022/01/08 03:16:27;;;;;;;13.10;8.20;;;1.10;99.90;;;;;;5028979;28;20057;-67
2022/01/08 03:18:54;;;;;;;12.32;8.02;;;1.10;99.90;;;;;;5029526;28;20050;-66
2022/01/08 03:21:22;;;;;;;14.05;8.90;;;1.10;99.90;;;;;;5038226;28;21593;-66
2022/01/08 03:23:59;;;;;;;11.57;7.90;;;1.10;99.90;;;;;;5034148;28;20045;-66
2022/01/08 03:26:28;;;;;;;12.43;8.25;;;1.10;99.90;;;;;;5047733;28;20040;-66
2022/01/08 03:28:57;;;;;;;13.57;8.52;;;1.10;99.90;;;;;;5030454;28;20053;-66
2022/01/08 03:31:25;;;;;;;14.75;8.75;;;1.10;99.90;;;;;;5033701;28;20041;-66
2022/01/08 03:33:54;;;;;;;12.65;8.65;;;1.10;99.90;;;;;;5033381;28;20256;-67
2022/01/08 03:36:23;;;;;;;13.27;8.10;;;1.10;99.90;;;;;;5038778;28;20040;-66
2022/01/08 03:38:51;;;;;;;14.23;8.68;;;1.10;99.90;;;;;;5036684;28;20109;-66
2022/01/08 03:41:20;;;;;;;13.07;8.00;;;1.10;99.90;;;;;;5035255;28;20119;-66
2022/01/08 03:43:47;;;;;;;11.65;7.95;;;1.20;99.90;;;;;;5025513;28;20042;-66
2022/01/08 03:46:14;;;;;;;13.90;8.38;;;1.10;99.90;;;;;;5026561;28;20415;-66
2022/01/08 03:48:47;;;;;;;13.15;8.77;;;1.20;99.90;;;;;;5029215;28;20059;-67
2022/01/08 03:51:14;;;;;;;21.45;10.60;;;1.20;99.90;;;;;;5028504;28;20395;-66
2022/01/08 03:53:44;;;;;;;22.10;11.68;;;1.20;99.90;;;;;;5029593;28;20068;-67
2022/01/08 03:56:11;;;;;;;14.57;8.85;;;1.20;99.90;;;;;;5039094;28;20042;-65
2022/01/08 03:58:38;;;;;;;12.23;8.35;;;1.20;99.90;;;;;;5020499;28;20057;-67
2022/01/08 04:01:05;;;;;;;11.40;7.68;;;1.20;99.90;;;;;;5025172;28;20543;-66
2022/01/08 04:03:33;;;;;;;11.07;7.00;;;1.30;99.90;;;;;;5032221;28;20408;-66
2022/01/08 04:06:00;;;;;;;11.73;7.10;;;1.30;99.90;;;;;;5032431;28;20512;-66
2022/01/08 04:08:28;;;;;;;13.60;7.47;;;1.30;99.90;;;;;;5028019;28;20045;-66
2022/01/08 04:10:55;;;;;;;12.70;7.22;;;1.30;99.90;;;;;;5033437;28;20198;-66
2022/01/08 04:13:29;;;;;;;11.10;7.45;;;1.40;99.90;;;;;;5045869;28;20045;-66
2022/01/08 04:16:01;;;;;;;10.57;7.43;;;1.40;99.90;;;;;;5040345;28;20045;-67
2022/01/08 04:18:28;;;;;;;13.00;7.85;;;1.40;99.90;;;;;;5032814;28;20523;-67
2022/01/08 04:23:35;;;;;;;13.20;7.22;;;1.50;99.90;;;;;;5034649;28;20042;-67
2022/01/08 04:26:03;;;;;;;12.40;8.05;;;1.50;99.90;;;;;;5041005;28;20549;-67
2022/01/08 04:28:30;;;;;;;11.18;7.28;;;1.40;99.90;;;;;;5039922;28;20041;-67
2022/01/08 04:30:58;;;;;;;10.75;7.20;;;1.50;99.90;;;;;;5031201;28;20037;-66
2022/01/08 04:33:25;;;;;;;12.60;7.57;;;1.50;99.90;;;;;;5040874;28;20152;-66
2022/01/08 04:35:55;;;;;;;11.55;7.32;;;1.50;99.90;;;;;;5036191;28;20456;-66
2022/01/08 04:38:23;;;;;;;11.48;7.40;;;1.50;99.90;;;;;;5022901;28;20120;-66
2022/01/08 04:40:50;;;;;;;11.13;7.85;;;1.50;99.90;;;;;;5029059;28;20046;-66
2022/01/08 04:43:17;;;;;;;11.65;7.45;;;1.50;99.90;;;;;;5029057;28;20041;-66
2022/01/08 04:45:45;;;;;;;12.77;7.82;;;1.50;99.90;;;;;;5031845;28;20436;-66
2022/01/08 04:48:12;;;;;;;14.32;8.55;;;1.40;99.90;;;;;;5025589;28;20042;-66
2022/01/08 04:50:39;;;;;;;12.35;8.05;;;1.40;99.90;;;;;;5025285;28;20056;-66
2022/01/08 04:53:07;;;;;;;14.40;8.13;;;1.40;99.90;;;;;;5035977;28;20044;-66
2022/01/08 04:55:34;;;;;;;13.27;8.93;;;1.40;99.90;;;;;;5027337;28;20050;-66
2022/01/08 04:58:01;;;;;;;14.73;8.27;;;1.30;99.90;;;;;;5034153;28;20120;-66
2022/01/08 05:00:29;;;;;;;14.27;8.57;;;1.30;99.90;;;;;;5036371;28;20056;-66
2022/01/08 05:02:57;;;;;;;15.20;8.98;;;1.30;99.90;;;;;;5031414;28;20296;-66
2022/01/08 05:05:25;;;;;;;13.70;8.68;;;1.30;99.90;;;;;;5039371;28;20071;-66
2022/01/08 05:07:52;;;;;;;14.65;9.07;;;1.30;99.90;;;;;;5038466;28;20053;-66
2022/01/08 05:10:19;;;;;;;14.45;8.50;;;1.30;99.90;;;;;;5038258;28;20053;-66
2022/01/08 05:12:47;;;;;;;14.15;8.98;;;1.30;99.90;;;;;;5032427;28;20049;-66
2022/01/08 05:15:16;;;;;;;13.43;9.10;;;1.30;99.90;;;;;;5036255;28;20063;-65
2022/01/08 05:17:46;;;;;;;14.32;9.35;;;1.30;99.90;;;;;;5025009;28;20515;-67
2022/01/08 05:20:14;;;;;;;13.35;8.18;;;1.30;99.90;;;;;;5030354;28;20061;-66
2022/01/08 05:25:19;;;;;;;12.75;8.82;;;1.30;99.90;;;;;;5038906;28;20041;-67
2022/01/08 05:27:48;;;;;;;14.23;8.93;;;1.30;99.90;;;;;;5039859;28;20049;-67
2022/01/08 05:30:20;;;;;;;14.05;8.23;;;1.30;99.90;;;;;;5031388;28;20368;-67
2022/01/08 05:32:48;;;;;;;14.63;8.63;;;1.30;99.90;;;;;;5042991;28;20053;-67
2022/01/08 05:35:16;;;;;;;13.73;9.18;;;1.30;99.90;;;;;;5037997;28;20072;-66
2022/01/08 05:37:44;;;;;;;16.88;10.15;;;1.30;99.90;;;;;;5041987;28;20044;-67
2022/01/08 05:40:11;;;;;;;15.55;9.73;;;1.40;99.90;;;;;;5038027;28;20485;-67
2022/01/08 05:42:39;;;;;;;14.75;8.75;;;1.40;99.90;;;;;;5035202;28;20044;-67
2022/01/08 05:45:07;;;;;;;12.80;7.75;;;1.40;99.90;;;;;;5032914;28;20049;-67
2022/01/08 05:47:35;;;;;;;12.13;7.95;;;1.50;99.90;;;;;;5029772;28;20049;-67
2022/01/08 05:50:04;;;;;;;13.20;8.32;;;1.50;99.90;;;;;;5033574;28;20538;-67
2022/01/08 05:52:31;;;;;;;11.27;7.10;;;1.50;99.90;;;;;;5033930;28;20056;-67
2022/01/08 05:54:59;;;;;;;13.90;7.97;;;1.40;99.90;;;;;;5038082;28;20072;-67
2022/01/08 05:57:26;;;;;;;16.98;9.63;;;1.50;99.90;;;;;;5035893;28;20041;-67
2022/01/08 05:59:53;;;;;;;15.55;8.73;;;1.50;99.90;;;;;;5030874;28;20132;-67
2022/01/08 06:02:20;;;;;;;12.55;7.30;;;1.50;99.90;;;;;;5029805;28;20052;-67
2022/01/08 06:04:48;;;;;;;13.27;7.50;;;1.50;99.90;;;;;;5011190;28;20069;-67
2022/01/08 06:07:15;;;;;;;14.27;7.30;;;1.50;99.90;;;;;;5021013;28;20056;-66
2022/01/08 06:09:42;;;;;;;11.60;7.18;;;1.50;99.90;;;;;;5030844;28;20065;-67
2022/01/08 06:12:10;;;;;;;11.73;6.35;;;1.50;99.90;;;;;;5023184;28;20049;-67
2022/01/08 06:14:37;;;;;;;11.23;6.80;;;1.50;99.90;;;;;;5031072;28;20083;-67
2022/01/08 06:17:06;;;;;;;11.48;6.85;;;1.50;99.90;;;;;;5043638;28;20518;-66
2022/01/08 06:19:33;;;;;;;11.75;6.57;;;1.50;99.90;;;;;;5030251;28;20061;-66
2022/01/08 06:22:01;;;;;;;10.45;6.90;;;1.50;99.90;;;;;;5043117;28;20057;-66
2022/01/08 06:24:28;;;;;;;11.80;6.97;;;1.50;99.90;;;;;;5030869;28;20520;-66
2022/01/08 06:26:56;;;;;;;10.43;6.43;;;1.60;99.90;;;;;;5029392;28;20041;-66
2022/01/08 06:29:23;;;;;;;12.07;6.22;;;1.60;99.90;;;;;;5030893;28;20368;-67
2022/01/08 06:31:51;;;;;;;12.05;6.70;;;1.50;99.90;;;;;;5029892;28;20045;-66
2022/01/08 06:34:19;;;;;;;11.80;6.90;;;1.50;99.90;;;;;;5030232;28;20504;-66
2022/01/08 06:36:49;;;;;;;10.40;5.75;;;1.60;99.90;;;;;;5031757;28;20068;-67
2022/01/08 06:39:16;;;;;;;12.13;6.75;;;1.50;99.90;;;;;;5042303;28;20048;-67
2022/01/08 06:41:44;;;;;;;11.85;6.57;;;1.50;99.90;;;;;;5031323;28;20060;-67
2022/01/08 06:44:11;;;;;;;11.20;6.45;;;1.50;99.90;;;;;;5024536;28;20042;-66
2022/01/08 06:46:40;;;;;;;11.55;6.97;;;1.50;99.90;;;;;;5029643;28;20444;-66
2022/01/08 06:49:09;;;;;;;11.10;6.40;;;1.50;99.90;;;;;;5030463;28;20565;-67
2022/01/08 06:51:36;;;;;;;12.18;6.05;;;1.50;99.90;;;;;;5030497;28;20584;-67
2022/01/08 06:54:04;;;;;;;9.27;6.03;;;1.40;99.90;;;;;;5030741;28;20566;-67
2022/01/08 06:56:31;;;;;;;10.75;6.10;;;1.40;99.90;;;;;;5031142;28;20052;-67
2022/01/08 06:58:58;;;;;;;9.95;6.28;;;1.40;99.90;;;;;;5030085;28;20041;-67
2022/01/08 07:01:26;;;;;;;10.77;6.38;;;1.40;99.90;;;;;;5023552;28;20101;-67
2022/01/08 07:03:55;;;;;;;9.73;6.30;;;1.30;99.90;;;;;;5036334;28;20389;-67
2022/01/08 07:06:22;;;;;;;12.80;6.65;;;1.30;99.90;;;;;;5037951;28;20045;-67
2022/01/08 07:08:54;;;;;;;11.88;7.32;;;1.30;99.90;;;;;;5025117;28;20491;-67
2022/01/08 07:11:21;;;;;;;14.32;7.75;;;1.40;99.90;;;;;;5030013;28;20053;-66
2022/01/08 07:13:48;;;;;;;14.10;7.85;;;1.50;99.90;;;;;;5028554;28;20069;-67
2022/01/08 07:16:15;;;;;;;13.23;7.05;;;1.60;99.90;;;;;;5029234;28;20041;-67
2022/01/08 07:18:43;;;;;;;12.65;7.10;;;1.50;99.90;;;;;;5020376;28;20044;-67
2022/01/08 07:21:10;;;;;;;11.65;6.50;;;1.40;99.90;;;;;;5023316;28;20048;-67
2022/01/08 07:23:37;;;;;;;9.70;6.20;;;1.40;99.90;;;;;;5029654;28;20041;-67
2022/01/08 07:26:05;;;;;;;10.23;5.95;;;1.50;99.90;;;;;;5029467;28;20045;-67
2022/01/08 07:28:32;;;;;;;9.73;6.00;;;1.50;99.90;;;;;;5028828;28;20049;-67
2022/01/08 07:30:59;;;;;;;12.23;6.50;;;1.50;99.90;;;;;;5026814;28;20045;-67
2022/01/08 07:33:26;;;;;;;11.07;6.35;;;1.50;99.90;;;;;;5029085;28;20037;-67
2022/01/08 07:35:53;;;;;;;9.60;6.40;;;1.50;99.90;;;;;;5028154;28;20389;-68
2022/01/08 07:38:22;;;;;;;12.45;6.65;;;1.50;99.90;;;;;;5027714;28;20053;-67
2022/01/08 07:40:51;;;;;;;12.27;7.00;;;1.40;99.90;;;;;;5021414;28;20045;-67
2022/01/08 07:43:19;;;;;;;12.73;7.07;;;1.40;99.90;;;;;;5025271;28;20041;-67
2022/01/08 07:45:47;;;;;;;12.18;6.40;;;1.60;99.90;;;;;;5028323;28;20493;-67
2022/01/08 07:48:15;;;;;;;10.05;6.53;;;1.50;99.90;;;;;;5029575;28;20049;-67
2022/01/08 07:50:43;;;;;;;11.40;6.88;;;1.30;99.90;;;;;;5029017;28;20467;-68
2022/01/08 07:53:10;;;;;;;10.48;6.60;;;1.30;99.90;;;;;;5028630;28;20056;-67
2022/01/08 07:55:37;;;;;;;11.50;6.93;;;1.30;99.90;;;;;;5027053;28;20397;-67
2022/01/08 07:58:05;;;;;;;11.32;6.55;;;1.30;99.90;;;;;;5024449;28;20041;-67
2022/01/08 08:00:32;;;;;;;9.20;6.10;;;1.30;99.90;;;;;;5019772;28;20491;-67
2022/01/08 08:02:59;;;;;;;10.20;6.05;;;1.30;99.90;;;;;;5028266;28;20041;-68
2022/01/08 08:05:27;;;;;;;12.07;6.32;;;1.30;99.90;;;;;;5028593;28;20037;-67
2022/01/08 08:07:55;;;;;;;10.93;6.65;;;1.30;99.90;;;;;;5028701;28;20042;-67
2022/01/08 08:10:25;;;;;;;9.18;6.13;;;1.40;99.90;;;;;;5028875;28;20042;-67
2022/01/08 08:12:55;;;;;;;9.35;5.72;;;1.40;99.90;;;;;;5027993;28;20132;-66
2022/01/08 08:15:23;;;;;;;7.50;5.07;;;1.40;99.90;;;;;;5029270;28;20411;-67
2022/01/08 08:17:53;;;;;;;9.30;5.43;;;1.40;99.90;;;;;;5027140;28;20041;-67
2022/01/08 08:20:20;;;;;;;9.25;5.63;;;1.50;99.90;;;;;;5031873;28;20040;-67
2022/01/08 08:22:48;;;;;;;8.55;5.25;;;1.60;99.90;;;;;;5036402;28;20148;-67
2022/01/08 08:25:15;;;;;;;9.77;5.40;;;1.60;99.90;;;;;;5030689;28;20045;-68
2022/01/08 08:27:43;;;;;;;9.15;6.07;;;1.60;99.90;;;;;;5030796;28;20102;-67
2022/01/08 08:30:11;;;;;;;10.02;5.75;;;1.60;99.90;;;;;;5032277;28;20057;-67
2022/01/08 08:32:39;;;;;;;9.30;5.88;;;1.60;99.90;;;;;;5026747;28;20065;-68
2022/01/08 08:35:08;;;;;;;10.85;6.85;;;1.60;99.90;;;;;;5027174;28;20049;-68
2022/01/08 08:37:36;;;;;;;9.85;6.10;;;1.60;99.90;;;;;;5029519;28;20048;-67
2022/01/08 08:40:11;;;;;;;10.43;6.28;;;1.50;99.90;;;;;;5037930;28;20403;-67
2022/01/08 08:42:40;;;;;;;10.10;6.63;;;1.60;99.90;;;;;;5034506;28;20040;-68
2022/01/08 08:45:08;;;;;;;10.00;6.15;;;1.60;99.90;;;;;;5024068;28;20122;-67
2022/01/08 08:47:36;;;;;;;9.40;6.20;;;1.50;99.90;;;;;;5038388;28;20047;-67
2022/01/08 08:50:04;;;;;;;9.93;5.40;;;1.60;99.90;;;;;;5031084;28;20057;-67
2022/01/08 08:52:31;;;;;;;6.68;4.47;;;1.60;99.90;;;;;;5026414;28;20049;-67
2022/01/08 08:54:59;;;;;;;7.22;4.50;;;1.70;99.90;;;;;;5024371;28;20065;-67
2022/01/08 08:57:27;;;;;;;6.90;4.32;;;1.70;99.90;;;;;;5029114;28;20491;-67
2022/01/08 08:59:55;;;;;;;9.57;5.38;;;1.70;99.90;;;;;;5028796;28;20161;-66
2022/01/08 09:02:22;;;;;;;9.27;5.47;;;1.80;99.90;;;;;;5024524;28;20115;-67
2022/01/08 09:04:50;;;;;;;7.75;4.25;;;1.90;99.90;;;;;;5033365;28;20058;-67
2022/01/08 09:07:18;;;;;;;8.63;5.53;;;1.90;99.90;;;;;;5033987;28;20041;-67
2022/01/08 09:09:46;;;;;;;7.13;4.72;;;1.90;99.90;;;;;;5031438;28;20417;-68
2022/01/08 09:12:16;;;;;;;6.20;4.07;;;2.00;99.90;;;;;;5032569;28;20049;-67
2022/01/08 09:14:44;;;;;;;7.40;4.30;;;2.00;99.90;;;;;;5032850;28;20065;-67
2022/01/08 09:17:13;;;;;;;7.68;3.88;;;2.00;99.90;;;;;;5032340;28;20629;-68
2022/01/08 09:19:41;;;;;;;6.00;3.78;;;1.90;99.90;;;;;;5024263;28;20073;-67
2022/01/08 09:22:09;;;;;;;6.13;4.00;;;1.80;99.90;;;;;;5032549;28;20533;-67
2022/01/08 09:24:37;;;;;;;5.85;3.55;;;1.80;99.90;;;;;;5033047;28;20416;-66
2022/01/08 09:27:05;;;;;;;5.82;3.58;;;1.80;99.90;;;;;;5032088;28;20072;-66
2022/01/08 09:29:33;;;;;;;6.32;3.40;;;1.70;99.90;;;;;;5032455;28;20037;-66
2022/01/08 09:32:00;;;;;;;5.82;3.30;;;1.60;99.90;;;;;;5032418;28;20053;-68
2022/01/08 09:34:27;;;;;;;8.38;3.83;;;1.60;99.90;;;;;;5033141;28;20046;-68
2022/01/08 09:36:55;;;;;;;5.20;3.15;;;1.60;99.90;;;;;;5032847;28;20709;-67
2022/01/08 09:39:22;;;;;;;4.57;2.60;;;1.50;99.90;;;;;;5034290;28;20052;-68
2022/01/08 09:41:49;;;;;;;6.22;2.80;;;1.50;99.90;;;;;;5026731;28;20065;-67
2022/01/08 09:44:16;;;;;;;4.85;2.80;;;1.50;99.90;;;;;;5032144;28;20040;-66
2022/01/08 09:46:44;;;;;;;4.13;2.40;;;1.50;99.90;;;;;;5031686;28;20506;-67
2022/01/08 09:49:11;;;;;;;5.15;2.72;;;1.50;99.90;;;;;;5041504;28;20047;-67
2022/01/08 09:51:38;;;;;;;4.88;2.40;;;1.50;99.90;;;;;;5031192;28;20045;-67
2022/01/08 09:54:06;;;;;;;4.60;2.25;;;1.50;99.90;;;;;;5032036;28;20496;-67
2022/01/08 09:56:33;;;;;;;3.53;1.92;;;1.50;99.90;;;;;;5031761;28;20038;-67
2022/01/08 09:59:01;;;;;;;4.18;2.08;;;1.40;99.90;;;;;;5033017;28;20613;-67
2022/01/08 10:01:33;;;;;;;7.55;2.35;;;1.40;99.90;;;;;;5027824;28;20118;-67
2022/01/08 10:04:03;;;;;;;5.63;2.53;;;1.40;99.90;;;;;;5031554;28;20046;-68
2022/01/08 10:06:33;;;;;;;4.70;2.20;;;1.40;99.90;;;;;;5032681;28;20107;-66
2022/01/08 10:09:02;;;;;;;7.22;2.03;;;1.40;99.90;;;;;;5032181;28;20049;-67
2022/01/08 10:11:29;;;;;;;4.40;2.45;;;1.40;99.90;;;;;;5038682;28;20473;-68
2022/01/08 10:14:05;;;;;;;7.47;2.47;;;1.40;99.90;;;;;;5024626;28;20048;-68
2022/01/08 10:19:28;;;;;;;6.30;2.72;;;1.40;99.90;;;;;;5022027;28;20071;-68
2022/01/08 10:21:56;;;;;;;7.28;2.95;;;1.30;99.90;;;;;;5037506;28;20046;-67
2022/01/08 10:24:26;;;;;;;6.10;2.92;;;1.30;99.90;;;;;;5031107;28;20156;-66
2022/01/08 10:27:02;;;;;;;6.85;3.45;;;1.30;99.90;;;;;;5046333;28;20668;-68
2022/01/08 10:29:29;;;;;;;5.13;2.95;;;1.20;99.90;;;;;;5032164;28;20487;-68
2022/01/08 10:31:57;;;;;;;5.32;3.10;;;1.20;99.90;;;;;;5031743;28;20045;-68
2022/01/08 10:34:26;;;;;;;4.72;2.92;;;1.30;99.90;;;;;;5028518;28;20056;-67
2022/01/08 10:37:01;;;;;;;5.63;2.97;;;1.20;99.90;;;;;;5031992;28;20041;-67
2022/01/08 10:39:39;;;;;;;5.43;2.72;;;1.30;99.90;;;;;;5031133;28;20475;-66
2022/01/08 10:42:16;;;;;;;6.28;3.10;;;1.30;99.90;;;;;;5032784;28;20041;-65
2022/01/08 10:44:50;;;;;;;6.15;3.83;;;1.30;99.90;;;;;;5031395;28;20048;-68
2022/01/08 10:47:22;;;;;;;6.35;3.33;;;1.20;99.90;;;;;;5018022;28;20042;-65
2022/01/08 10:50:02;;;;;;;8.75;3.80;;;1.20;99.90;;;;;;5028539;28;20550;-67
2022/01/08 10:52:44;;;;;;;7.63;4.18;;;1.20;99.90;;;;;;5033249;28;20116;-67
2022/01/08 10:55:11;;;;;;;9.13;5.10;;;1.20;99.90;;;;;;5028097;28;20044;-67
2022/01/08 10:57:40;;;;;;;9.93;4.95;;;1.20;99.90;;;;;;5027310;28;20388;-68
2022/01/08 11:00:11;;;;;;;9.52;5.22;;;1.20;99.90;;;;;;5027344;28;20053;-66
2022/01/08 11:02:43;;;;;;;8.70;5.35;;;1.20;99.90;;;;;;5028557;28;20173;-66
2022/01/08 11:05:12;;;;;;;10.73;5.20;;;1.20;99.90;;;;;;5031301;28;20045;-67
2022/01/08 11:07:41;;;;;;;9.15;4.93;;;1.20;99.90;;;;;;5032346;28;20068;-67
2022/01/08 11:10:19;;;;;;;7.10;4.60;;;1.30;99.90;;;;;;5025560;28;20455;-67
2022/01/08 11:12:48;;;;;;;11.68;5.47;;;1.30;99.90;;;;;;5029843;28;20056;-67
2022/01/08 11:17:54;;;;;;;10.57;4.57;;;1.40;99.90;;;;;;5030070;28;20476;-66
2022/01/08 11:20:44;;;;;;;7.82;4.80;;;1.40;99.90;;;;;;5022859;28;20041;-66
2022/01/08 11:23:12;;;;;;;9.25;5.18;;;1.50;99.90;;;;;;5035195;28;20199;-66
2022/01/08 11:25:41;;;;;;;10.13;5.15;;;1.50;99.90;;;;;;5022931;28;20048;-67
2022/01/08 11:28:16;;;;;;;12.32;5.15;;;1.70;99.90;;;;;;5036082;28;20391;-68
2022/01/08 11:30:47;;;;;;;12.80;5.63;;;1.80;99.90;;;;;;5022533;28;20480;-67
2022/01/08 11:33:24;;;;;;;11.93;5.13;;;1.90;99.90;;;;;;5022186;28;20075;-68
2022/01/08 11:35:53;;;;;;;12.48;5.70;;;2.00;99.90;;;;;;5017228;28;20504;-67
2022/01/08 11:38:22;;;;;;;9.63;4.60;;;2.20;99.90;;;;;;5027790;28;20407;-66
2022/01/08 11:40:52;;;;;;;9.93;4.93;;;2.30;99.90;;;;;;5035229;28;20049;-66
2022/01/08 11:43:22;;;;;;;9.40;5.32;;;2.60;99.90;;;;;;5007849;28;20049;-66
2022/01/08 11:45:56;;;;;;;12.65;4.82;;;3.10;99.90;;;;;;5024116;28;20050;-66
2022/01/08 11:48:29;;;;;;;13.70;5.20;;;4.10;99.90;;;;;;5031781;28;20048;-68
2022/01/08 11:50:59;;;;;;;10.18;5.10;;;4.40;99.90;;;;;;5034206;28;20060;-68
2022/01/08 11:53:30;;;;;;;9.63;4.40;;;4.40;99.90;;;;;;5037281;28;20081;-67
2022/01/08 11:56:06;;;;;;;7.05;4.28;;;4.40;99.90;;;;;;5044624;28;20349;-67
2022/01/08 11:58:35;;;;;;;9.82;4.68;;;4.60;99.90;;;;;;5029918;28;20041;-67
2022/01/08 12:01:04;;;;;;;10.95;4.72;;;4.80;99.90;;;;;;5025677;28;20064;-68
2022/01/08 12:03:38;;;;;;;8.30;4.93;;;4.50;99.90;;;;;;5030578;28;20059;-68
2022/01/08 12:06:37;;;;;;;9.25;4.93;;;4.10;99.90;;;;;;5031454;28;20069;-66
2022/01/08 12:09:08;;;;;;;7.82;4.82;;;4.10;99.90;;;;;;5022337;28;20136;-67
2022/01/08 12:11:41;;;;;;;7.70;4.43;;;4.40;99.90;;;;;;5017662;28;20045;-68
2022/01/08 12:14:11;;;;;;;7.10;4.35;;;5.30;99.90;;;;;;5016434;28;20057;-66
2022/01/08 12:16:46;;;;;;;10.68;4.93;;;5.60;99.90;;;;;;5034026;28;20049;-68
2022/01/08 12:19:31;;;;;;;9.85;5.13;;;5.20;99.90;;;;;;5029212;28;20385;-68
2022/01/08 12:22:01;;;;;;;7.97;4.70;;;4.90;99.90;;;;;;5016307;28;20038;-67
2022/01/08 12:24:28;;;;;;;8.18;4.85;;;4.40;99.90;;;;;;5030815;28;20064;-67
2022/01/08 12:27:02;;;;;;;12.30;5.30;;;4.20;99.90;;;;;;5031664;28;20043;-68
2022/01/08 12:29:35;;;;;;;7.70;5.30;;;4.80;99.90;;;;;;5038156;28;20137;-66
2022/01/08 12:32:29;;;;;;;7.93;4.72;;;5.40;99.90;;;;;;5044649;28;20139;-68
2022/01/08 12:35:15;;;;;;;10.45;4.30;;;5.80;99.90;;;;;;5034891;28;20060;-67
2022/01/08 12:37:45;;;;;;;8.50;4.63;;;6.40;99.90;;;;;;5035704;28;20518;-67
2022/01/08 12:40:31;;;;;;;7.22;4.05;;;6.90;99.90;;;;;;5034711;28;20104;-68
2022/01/08 12:42:59;;;;;;;9.02;4.35;;;7.30;99.90;;;;;;5032585;28;20045;-67
2022/01/08 12:45:31;;;;;;;7.93;4.22;;;6.80;99.90;;;;;;5035048;28;20527;-66
2022/01/08 12:48:04;;;;;;;12.98;4.50;;;6.70;99.90;;;;;;5032460;28;20045;-68
2022/01/08 12:50:37;;;;;;;8.98;4.25;;;6.10;99.90;;;;;;5016520;28;20479;-67
2022/01/08 12:53:11;;;;;;;8.32;4.50;;;5.50;99.90;;;;;;5024681;28;20136;-68
2022/01/08 12:55:54;;;;;;;8.98;5.10;;;5.10;99.90;;;;;;5039623;28;20068;-68
2022/01/08 12:58:26;;;;;;;7.07;3.83;;;4.40;99.90;;;;;;5033746;28;20055;-68
2022/01/08 13:01:00;;;;;;;7.20;4.30;;;3.90;99.90;;;;;;5019523;28;20069;-67
2022/01/08 13:03:36;;;;;;;7.60;4.47;;;3.80;99.90;;;;;;5019405;28;20056;-65
2022/01/08 13:06:10;;;;;;;7.45;4.55;;;3.50;99.90;;;;;;5027778;28;20038;-68
2022/01/08 13:08:38;;;;;;;9.20;4.35;;;3.40;99.90;;;;;;5037787;28;20076;-68
2022/01/08 13:11:08;;;;;;;8.90;4.85;;;3.30;99.90;;;;;;5038708;28;20533;-67
2022/01/08 13:13:45;;;;;;;9.23;4.88;;;3.10;99.90;;;;;;5044411;28;20052;-66
2022/01/08 13:16:42;;;;;;;10.90;4.60;;;3.00;99.90;;;;;;5046617;28;20068;-69
2022/01/08 13:19:15;;;;;;;9.60;4.43;;;2.90;99.90;;;;;;5025506;28;20045;-65
2022/01/08 13:21:43;;;;;;;11.77;4.97;;;2.80;99.90;;;;;;5042050;28;20052;-67
2022/01/08 13:24:39;;;;;;;9.77;4.93;;;2.70;99.90;;;;;;5017821;28;20046;-67
2022/01/08 13:27:11;;;;;;;8.55;4.78;;;2.80;99.90;;;;;;5027071;28;20041;-67
2022/01/08 13:29:41;;;;;;;8.93;4.47;;;3.10;99.90;;;;;;5028711;28;20045;-68
2022/01/08 13:32:12;;;;;;;9.93;4.40;;;3.50;99.90;;;;;;5029450;28;20049;-65